Sultan Atasoy — TCYG9 — position and weather

sailwx.info

Track history (hours):
 
Tides and Currents Weather Stations Pressure Air Temp Water Temp Dewpoint Dewpoint Depression Visibility Wind Speed Wind Dir Waves Ship Positions

Sultan Atasoy

Last reported at 2017-Apr-26 02:51 UTC. Time now 2017-Apr-26 19:38 UTC.
Position N 40°51' E 028°46'.

Length 109 m; draft 4.3 m.

Type: Ship. MMSI: 271040963.

Date/timePositionNaut miles runAvg speedWind from/ knotsBaromVisibWave heightAir tempDewpointWater temp
2017-Apr-26 02:51N 40°51' E 028°46'410.4
2017-Apr-26 02:26N 40°54' E 028°50'410.2
2017-Apr-26 02:00N 40°57' E 028°54'1 0.3
2017-Apr-25 23:57N 40°58' E 028°55'0 0.0
2017-Apr-25 23:30N 40°58' E 028°55'2 2.7
2017-Apr-25 22:53N 40°58' E 028°57'  
2017-Apr-18 14:07N 40°59' E 028°59'4 6.3
2017-Apr-18 13:30N 40°56' E 028°57'3 0.3
2017-Apr-18 02:22N 40°58' E 028°56'2 5.7
2017-Apr-18 02:00N 40°57' E 028°58'4 8.2
2017-Apr-18 01:29N 40°54' E 028°54'510.6
2017-Apr-18 01:00N 40°51' E 028°48'  
Track history (hours):
 
Tides and Currents Weather Stations Pressure Air Temp Water Temp Dewpoint Dewpoint Depression Visibility Wind Speed Wind Dir Waves Ship Positions

Sultan Atasoy

Last reported at 2017-Apr-26 02:51 UTC. Time now 2017-Apr-26 19:38 UTC.
Position N 40°51' E 028°46'.

Length 109 m; draft 4.3 m.

Type: Ship. MMSI: 271040963.

Date/timePositionNaut miles runAvg speedWind from/ knotsBaromVisibWave heightAir tempDewpointWater temp
2017-Apr-26 02:51N 40°51' E 028°46'410.4
2017-Apr-26 02:26N 40°54' E 028°50'410.2
2017-Apr-26 02:00N 40°57' E 028°54'1 0.3
2017-Apr-25 23:57N 40°58' E 028°55'0 0.0
2017-Apr-25 23:30N 40°58' E 028°55'2 2.7
2017-Apr-25 22:53N 40°58' E 028°57'  
2017-Apr-18 14:07N 40°59' E 028°59'4 6.3
2017-Apr-18 13:30N 40°56' E 028°57'3 0.3
2017-Apr-18 02:22N 40°58' E 028°56'2 5.7
2017-Apr-18 02:00N 40°57' E 028°58'4 8.2
2017-Apr-18 01:29N 40°54' E 028°54'510.6
2017-Apr-18 01:00N 40°51' E 028°48'  

Dump ship's entire track history